sensor_id;sensor_type;location;lat;lon;timestamp;P1;durP1;ratioP1;P2;durP2;ratioP2
9675;SDS011;4876;42.656;23.292;2023-06-22T00:00:49;7.77;;;7.07;;
9675;SDS011;4876;42.656;23.292;2023-06-22T00:03:18;8.77;;;7.13;;
9675;SDS011;4876;42.656;23.292;2023-06-22T00:05:47;10.10;;;6.70;;
9675;SDS011;4876;42.656;23.292;2023-06-22T00:08:15;7.80;;;6.87;;
9675;SDS011;4876;42.656;23.292;2023-06-22T00:10:42;8.53;;;7.57;;
9675;SDS011;4876;42.656;23.292;2023-06-22T00:13:09;11.47;;;6.93;;
9675;SDS011;4876;42.656;23.292;2023-06-22T00:15:37;8.27;;;7.47;;
9675;SDS011;4876;42.656;23.292;2023-06-22T00:18:05;13.53;;;7.23;;
9675;SDS011;4876;42.656;23.292;2023-06-22T00:20:34;10.60;;;8.90;;
9675;SDS011;4876;42.656;23.292;2023-06-22T00:23:03;12.10;;;8.60;;
9675;SDS011;4876;42.656;23.292;2023-06-22T00:25:33;9.87;;;7.97;;
9675;SDS011;4876;42.656;23.292;2023-06-22T00:28:01;10.43;;;8.17;;
9675;SDS011;4876;42.656;23.292;2023-06-22T00:30:28;13.07;;;8.33;;
9675;SDS011;4876;42.656;23.292;2023-06-22T00:32:54;8.70;;;7.80;;
9675;SDS011;4876;42.656;23.292;2023-06-22T00:35:21;11.00;;;8.70;;
9675;SDS011;4876;42.656;23.292;2023-06-22T00:37:49;10.40;;;8.13;;
9675;SDS011;4876;42.656;23.292;2023-06-22T00:40:17;9.70;;;7.77;;
9675;SDS011;4876;42.656;23.292;2023-06-22T00:42:46;9.37;;;7.90;;
9675;SDS011;4876;42.656;23.292;2023-06-22T00:45:13;13.33;;;8.27;;
9675;SDS011;4876;42.656;23.292;2023-06-22T00:47:40;10.93;;;8.63;;
9675;SDS011;4876;42.656;23.292;2023-06-22T00:50:09;9.07;;;8.20;;
9675;SDS011;4876;42.656;23.292;2023-06-22T00:52:46;12.00;;;7.50;;
9675;SDS011;4876;42.656;23.292;2023-06-22T00:55:15;10.83;;;7.70;;
9675;SDS011;4876;42.656;23.292;2023-06-22T00:57:43;10.13;;;9.20;;
9675;SDS011;4876;42.656;23.292;2023-06-22T01:00:12;14.40;;;9.17;;
9675;SDS011;4876;42.656;23.292;2023-06-22T01:02:44;13.73;;;9.77;;
9675;SDS011;4876;42.656;23.292;2023-06-22T01:05:12;12.20;;;9.10;;
9675;SDS011;4876;42.656;23.292;2023-06-22T01:07:41;11.57;;;9.73;;
9675;SDS011;4876;42.656;23.292;2023-06-22T01:10:14;13.70;;;9.33;;
9675;SDS011;4876;42.656;23.292;2023-06-22T01:12:50;16.50;;;8.83;;
9675;SDS011;4876;42.656;23.292;2023-06-22T01:15:21;11.03;;;8.37;;
9675;SDS011;4876;42.656;23.292;2023-06-22T01:17:54;12.93;;;8.13;;
9675;SDS011;4876;42.656;23.292;2023-06-22T01:20:23;9.67;;;8.00;;
9675;SDS011;4876;42.656;23.292;2023-06-22T01:22:57;14.87;;;8.43;;
9675;SDS011;4876;42.656;23.292;2023-06-22T01:25:36;8.60;;;7.80;;
9675;SDS011;4876;42.656;23.292;2023-06-22T01:28:12;9.00;;;8.10;;
9675;SDS011;4876;42.656;23.292;2023-06-22T01:30:52;15.30;;;8.50;;
9675;SDS011;4876;42.656;23.292;2023-06-22T01:33:31;11.30;;;8.47;;
9675;SDS011;4876;42.656;23.292;2023-06-22T01:36:01;14.30;;;8.83;;
9675;SDS011;4876;42.656;23.292;2023-06-22T01:38:29;11.97;;;8.93;;
9675;SDS011;4876;42.656;23.292;2023-06-22T01:40:57;12.37;;;8.73;;
9675;SDS011;4876;42.656;23.292;2023-06-22T01:43:25;8.60;;;7.77;;
9675;SDS011;4876;42.656;23.292;2023-06-22T01:45:54;11.70;;;8.40;;
9675;SDS011;4876;42.656;23.292;2023-06-22T01:48:22;9.03;;;8.10;;
9675;SDS011;4876;42.656;23.292;2023-06-22T01:50:51;9.70;;;8.67;;
9675;SDS011;4876;42.656;23.292;2023-06-22T01:53:18;9.87;;;8.03;;
9675;SDS011;4876;42.656;23.292;2023-06-22T01:55:46;10.93;;;7.80;;
9675;SDS011;4876;42.656;23.292;2023-06-22T01:58:13;12.90;;;8.50;;
9675;SDS011;4876;42.656;23.292;2023-06-22T02:00:40;10.70;;;8.63;;
9675;SDS011;4876;42.656;23.292;2023-06-22T02:03:16;9.87;;;8.90;;
9675;SDS011;4876;42.656;23.292;2023-06-22T02:05:48;12.87;;;9.83;;
9675;SDS011;4876;42.656;23.292;2023-06-22T02:08:17;11.93;;;9.00;;
9675;SDS011;4876;42.656;23.292;2023-06-22T02:10:47;12.27;;;8.73;;
9675;SDS011;4876;42.656;23.292;2023-06-22T02:13:16;9.97;;;8.93;;
9675;SDS011;4876;42.656;23.292;2023-06-22T02:15:44;13.97;;;9.83;;
9675;SDS011;4876;42.656;23.292;2023-06-22T02:18:12;12.53;;;8.77;;
9675;SDS011;4876;42.656;23.292;2023-06-22T02:20:41;10.33;;;8.93;;
9675;SDS011;4876;42.656;23.292;2023-06-22T02:23:08;15.03;;;9.27;;
9675;SDS011;4876;42.656;23.292;2023-06-22T02:25:35;12.57;;;9.37;;
9675;SDS011;4876;42.656;23.292;2023-06-22T02:28:03;13.83;;;10.03;;
9675;SDS011;4876;42.656;23.292;2023-06-22T02:30:30;15.00;;;10.17;;
9675;SDS011;4876;42.656;23.292;2023-06-22T02:32:57;13.30;;;10.17;;
9675;SDS011;4876;42.656;23.292;2023-06-22T02:35:25;15.00;;;9.70;;
9675;SDS011;4876;42.656;23.292;2023-06-22T02:37:57;12.60;;;9.57;;
9675;SDS011;4876;42.656;23.292;2023-06-22T02:40:25;13.77;;;9.80;;
9675;SDS011;4876;42.656;23.292;2023-06-22T02:42:52;12.93;;;9.33;;
9675;SDS011;4876;42.656;23.292;2023-06-22T02:45:19;12.77;;;8.97;;
9675;SDS011;4876;42.656;23.292;2023-06-22T02:47:46;14.97;;;9.80;;
9675;SDS011;4876;42.656;23.292;2023-06-22T02:50:14;9.90;;;8.87;;
9675;SDS011;4876;42.656;23.292;2023-06-22T02:52:40;11.37;;;9.83;;
9675;SDS011;4876;42.656;23.292;2023-06-22T02:55:09;13.10;;;9.77;;
9675;SDS011;4876;42.656;23.292;2023-06-22T02:57:35;14.27;;;10.27;;
9675;SDS011;4876;42.656;23.292;2023-06-22T03:00:03;12.77;;;8.40;;
9675;SDS011;4876;42.656;23.292;2023-06-22T03:02:43;16.03;;;9.10;;
9675;SDS011;4876;42.656;23.292;2023-06-22T03:05:10;12.47;;;8.30;;
9675;SDS011;4876;42.656;23.292;2023-06-22T03:07:38;14.70;;;9.00;;
9675;SDS011;4876;42.656;23.292;2023-06-22T03:10:09;17.63;;;10.03;;
9675;SDS011;4876;42.656;23.292;2023-06-22T03:12:36;17.77;;;9.00;;
9675;SDS011;4876;42.656;23.292;2023-06-22T03:15:04;17.77;;;9.60;;
9675;SDS011;4876;42.656;23.292;2023-06-22T03:17:32;18.63;;;9.10;;
9675;SDS011;4876;42.656;23.292;2023-06-22T03:20:00;16.17;;;9.60;;
9675;SDS011;4876;42.656;23.292;2023-06-22T03:22:29;12.50;;;8.77;;
9675;SDS011;4876;42.656;23.292;2023-06-22T03:24:56;11.73;;;9.27;;
9675;SDS011;4876;42.656;23.292;2023-06-22T03:27:24;13.23;;;9.37;;
9675;SDS011;4876;42.656;23.292;2023-06-22T03:29:51;10.50;;;8.83;;
9675;SDS011;4876;42.656;23.292;2023-06-22T03:32:17;13.33;;;9.00;;
9675;SDS011;4876;42.656;23.292;2023-06-22T03:34:44;10.73;;;9.20;;
9675;SDS011;4876;42.656;23.292;2023-06-22T03:37:12;10.90;;;8.50;;
9675;SDS011;4876;42.656;23.292;2023-06-22T03:39:39;13.57;;;8.53;;
9675;SDS011;4876;42.656;23.292;2023-06-22T03:42:06;12.20;;;8.40;;
9675;SDS011;4876;42.656;23.292;2023-06-22T03:44:35;22.37;;;10.13;;
9675;SDS011;4876;42.656;23.292;2023-06-22T03:47:02;20.13;;;10.10;;
9675;SDS011;4876;42.656;23.292;2023-06-22T03:49:32;13.03;;;9.07;;
9675;SDS011;4876;42.656;23.292;2023-06-22T03:51:59;20.80;;;9.93;;
9675;SDS011;4876;42.656;23.292;2023-06-22T03:54:27;15.63;;;9.50;;
9675;SDS011;4876;42.656;23.292;2023-06-22T03:56:54;11.60;;;9.33;;
9675;SDS011;4876;42.656;23.292;2023-06-22T03:59:22;22.13;;;11.63;;
9675;SDS011;4876;42.656;23.292;2023-06-22T04:01:50;19.17;;;10.20;;
9675;SDS011;4876;42.656;23.292;2023-06-22T04:04:17;23.13;;;9.97;;
9675;SDS011;4876;42.656;23.292;2023-06-22T04:06:44;17.67;;;10.57;;
9675;SDS011;4876;42.656;23.292;2023-06-22T04:09:11;13.57;;;10.20;;
9675;SDS011;4876;42.656;23.292;2023-06-22T04:11:38;11.60;;;9.73;;
9675;SDS011;4876;42.656;23.292;2023-06-22T04:14:05;12.13;;;9.83;;
9675;SDS011;4876;42.656;23.292;2023-06-22T04:16:31;12.33;;;9.83;;
9675;SDS011;4876;42.656;23.292;2023-06-22T04:19:00;14.87;;;10.37;;
9675;SDS011;4876;42.656;23.292;2023-06-22T04:21:27;17.87;;;10.37;;
9675;SDS011;4876;42.656;23.292;2023-06-22T04:23:54;13.20;;;10.90;;
9675;SDS011;4876;42.656;23.292;2023-06-22T04:26:20;15.37;;;11.70;;
9675;SDS011;4876;42.656;23.292;2023-06-22T04:28:47;15.53;;;9.77;;
9675;SDS011;4876;42.656;23.292;2023-06-22T04:31:16;13.67;;;11.40;;
9675;SDS011;4876;42.656;23.292;2023-06-22T04:33:44;15.70;;;12.23;;
9675;SDS011;4876;42.656;23.292;2023-06-22T04:36:13;21.00;;;11.60;;
9675;SDS011;4876;42.656;23.292;2023-06-22T04:38:40;16.37;;;12.03;;
9675;SDS011;4876;42.656;23.292;2023-06-22T04:41:07;16.07;;;11.73;;
9675;SDS011;4876;42.656;23.292;2023-06-22T04:43:39;14.97;;;11.73;;
9675;SDS011;4876;42.656;23.292;2023-06-22T04:46:06;18.67;;;11.60;;
9675;SDS011;4876;42.656;23.292;2023-06-22T04:48:33;14.97;;;12.93;;
9675;SDS011;4876;42.656;23.292;2023-06-22T04:50:59;23.33;;;12.20;;
9675;SDS011;4876;42.656;23.292;2023-06-22T04:53:30;19.17;;;11.50;;
9675;SDS011;4876;42.656;23.292;2023-06-22T04:55:57;20.10;;;12.23;;
9675;SDS011;4876;42.656;23.292;2023-06-22T04:58:23;13.73;;;10.90;;
9675;SDS011;4876;42.656;23.292;2023-06-22T05:00:53;16.80;;;11.37;;
9675;SDS011;4876;42.656;23.292;2023-06-22T05:03:22;18.37;;;12.70;;
9675;SDS011;4876;42.656;23.292;2023-06-22T05:05:51;20.90;;;12.07;;
9675;SDS011;4876;42.656;23.292;2023-06-22T05:08:18;17.50;;;13.70;;
9675;SDS011;4876;42.656;23.292;2023-06-22T05:10:47;22.07;;;13.60;;
9675;SDS011;4876;42.656;23.292;2023-06-22T05:13:13;21.60;;;13.43;;
9675;SDS011;4876;42.656;23.292;2023-06-22T05:15:40;25.50;;;13.30;;
9675;SDS011;4876;42.656;23.292;2023-06-22T05:18:07;17.40;;;12.90;;
9675;SDS011;4876;42.656;23.292;2023-06-22T05:20:37;18.27;;;12.30;;
9675;SDS011;4876;42.656;23.292;2023-06-22T05:23:04;15.73;;;12.63;;
9675;SDS011;4876;42.656;23.292;2023-06-22T05:25:30;16.93;;;12.73;;
9675;SDS011;4876;42.656;23.292;2023-06-22T05:27:59;17.53;;;13.20;;
9675;SDS011;4876;42.656;23.292;2023-06-22T05:30:26;17.37;;;13.40;;
9675;SDS011;4876;42.656;23.292;2023-06-22T05:32:53;17.27;;;13.80;;
9675;SDS011;4876;42.656;23.292;2023-06-22T05:35:20;24.30;;;14.87;;
9675;SDS011;4876;42.656;23.292;2023-06-22T05:37:47;21.33;;;14.03;;
9675;SDS011;4876;42.656;23.292;2023-06-22T05:40:14;23.43;;;14.47;;
9675;SDS011;4876;42.656;23.292;2023-06-22T05:42:41;15.47;;;13.87;;
9675;SDS011;4876;42.656;23.292;2023-06-22T05:45:09;15.67;;;12.00;;
9675;SDS011;4876;42.656;23.292;2023-06-22T05:47:36;14.83;;;12.03;;
9675;SDS011;4876;42.656;23.292;2023-06-22T05:50:03;12.87;;;11.17;;
9675;SDS011;4876;42.656;23.292;2023-06-22T05:52:33;14.83;;;11.73;;
9675;SDS011;4876;42.656;23.292;2023-06-22T05:55:01;13.67;;;12.27;;
9675;SDS011;4876;42.656;23.292;2023-06-22T05:57:28;15.13;;;12.37;;
9675;SDS011;4876;42.656;23.292;2023-06-22T05:59:55;16.17;;;13.00;;
9675;SDS011;4876;42.656;23.292;2023-06-22T06:02:23;14.33;;;12.83;;
9675;SDS011;4876;42.656;23.292;2023-06-22T06:04:50;15.43;;;12.23;;
9675;SDS011;4876;42.656;23.292;2023-06-22T06:07:17;15.13;;;11.67;;
9675;SDS011;4876;42.656;23.292;2023-06-22T06:09:44;14.63;;;12.53;;
9675;SDS011;4876;42.656;23.292;2023-06-22T06:12:11;16.60;;;13.77;;
9675;SDS011;4876;42.656;23.292;2023-06-22T06:14:38;17.03;;;13.73;;
9675;SDS011;4876;42.656;23.292;2023-06-22T06:17:05;24.40;;;13.30;;
9675;SDS011;4876;42.656;23.292;2023-06-22T06:19:33;15.30;;;12.00;;
9675;SDS011;4876;42.656;23.292;2023-06-22T06:22:00;22.60;;;12.60;;
9675;SDS011;4876;42.656;23.292;2023-06-22T06:24:27;14.27;;;12.30;;
9675;SDS011;4876;42.656;23.292;2023-06-22T06:26:53;15.27;;;13.53;;
9675;SDS011;4876;42.656;23.292;2023-06-22T06:29:20;19.17;;;12.90;;
9675;SDS011;4876;42.656;23.292;2023-06-22T06:31:48;23.20;;;13.40;;
9675;SDS011;4876;42.656;23.292;2023-06-22T06:34:15;17.85;;;13.30;;
9675;SDS011;4876;42.656;23.292;2023-06-22T06:36:43;15.82;;;12.18;;
9675;SDS011;4876;42.656;23.292;2023-06-22T06:39:10;18.30;;;12.32;;
9675;SDS011;4876;42.656;23.292;2023-06-22T06:41:37;22.70;;;13.52;;
9675;SDS011;4876;42.656;23.292;2023-06-22T06:44:04;17.55;;;12.55;;
9675;SDS011;4876;42.656;23.292;2023-06-22T06:46:30;19.85;;;12.50;;
9675;SDS011;4876;42.656;23.292;2023-06-22T06:48:57;13.98;;;12.38;;
9675;SDS011;4876;42.656;23.292;2023-06-22T06:51:24;14.77;;;11.82;;
9675;SDS011;4876;42.656;23.292;2023-06-22T06:53:52;11.93;;;10.73;;
9675;SDS011;4876;42.656;23.292;2023-06-22T06:56:19;15.93;;;11.82;;
9675;SDS011;4876;42.656;23.292;2023-06-22T06:58:46;16.40;;;12.40;;
9675;SDS011;4876;42.656;23.292;2023-06-22T07:01:13;14.40;;;11.65;;
9675;SDS011;4876;42.656;23.292;2023-06-22T07:03:40;13.10;;;11.63;;
9675;SDS011;4876;42.656;23.292;2023-06-22T07:06:07;15.35;;;12.52;;
9675;SDS011;4876;42.656;23.292;2023-06-22T07:08:34;20.17;;;12.63;;
9675;SDS011;4876;42.656;23.292;2023-06-22T07:11:03;15.35;;;13.20;;
9675;SDS011;4876;42.656;23.292;2023-06-22T07:13:30;15.82;;;12.85;;
9675;SDS011;4876;42.656;23.292;2023-06-22T07:15:56;13.70;;;12.30;;
9675;SDS011;4876;42.656;23.292;2023-06-22T07:18:24;17.70;;;11.68;;
9675;SDS011;4876;42.656;23.292;2023-06-22T07:20:51;19.17;;;12.50;;
9675;SDS011;4876;42.656;23.292;2023-06-22T07:23:18;17.77;;;11.73;;
9675;SDS011;4876;42.656;23.292;2023-06-22T07:25:45;16.27;;;11.55;;
9675;SDS011;4876;42.656;23.292;2023-06-22T07:28:13;12.00;;;10.65;;
9675;SDS011;4876;42.656;23.292;2023-06-22T07:30:40;13.68;;;10.23;;
9675;SDS011;4876;42.656;23.292;2023-06-22T07:33:07;12.43;;;10.52;;
9675;SDS011;4876;42.656;23.292;2023-06-22T07:35:33;19.38;;;11.25;;
9675;SDS011;4876;42.656;23.292;2023-06-22T07:38:00;12.27;;;10.75;;
9675;SDS011;4876;42.656;23.292;2023-06-22T07:40:27;11.20;;;10.07;;
9675;SDS011;4876;42.656;23.292;2023-06-22T07:42:54;13.48;;;11.82;;
9675;SDS011;4876;42.656;23.292;2023-06-22T07:45:22;13.18;;;11.85;;
9675;SDS011;4876;42.656;23.292;2023-06-22T07:47:49;13.50;;;11.32;;
9675;SDS011;4876;42.656;23.292;2023-06-22T07:50:16;15.02;;;12.35;;
9675;SDS011;4876;42.656;23.292;2023-06-22T07:52:43;12.55;;;10.77;;
9675;SDS011;4876;42.656;23.292;2023-06-22T07:55:10;12.43;;;9.75;;
9675;SDS011;4876;42.656;23.292;2023-06-22T07:57:36;11.93;;;9.90;;
9675;SDS011;4876;42.656;23.292;2023-06-22T08:00:04;10.35;;;9.35;;
9675;SDS011;4876;42.656;23.292;2023-06-22T08:02:39;12.20;;;10.88;;
9675;SDS011;4876;42.656;23.292;2023-06-22T08:05:06;13.32;;;10.38;;
9675;SDS011;4876;42.656;23.292;2023-06-22T08:07:34;15.35;;;10.13;;
9675;SDS011;4876;42.656;23.292;2023-06-22T08:10:02;12.27;;;10.80;;
9675;SDS011;4876;42.656;23.292;2023-06-22T08:12:29;15.35;;;9.93;;
9675;SDS011;4876;42.656;23.292;2023-06-22T08:14:55;16.00;;;10.60;;
9675;SDS011;4876;42.656;23.292;2023-06-22T08:17:23;18.95;;;11.80;;
9675;SDS011;4876;42.656;23.292;2023-06-22T08:19:51;14.77;;;11.77;;
9675;SDS011;4876;42.656;23.292;2023-06-22T08:22:18;20.38;;;12.65;;
9675;SDS011;4876;42.656;23.292;2023-06-22T08:24:45;16.85;;;12.27;;
9675;SDS011;4876;42.656;23.292;2023-06-22T08:27:12;19.77;;;11.57;;
9675;SDS011;4876;42.656;23.292;2023-06-22T08:29:40;16.67;;;11.80;;
9675;SDS011;4876;42.656;23.292;2023-06-22T08:32:09;12.68;;;11.38;;
9675;SDS011;4876;42.656;23.292;2023-06-22T08:34:36;20.63;;;12.15;;
9675;SDS011;4876;42.656;23.292;2023-06-22T08:37:08;13.93;;;11.85;;
9675;SDS011;4876;42.656;23.292;2023-06-22T08:39:35;12.68;;;11.38;;
9675;SDS011;4876;42.656;23.292;2023-06-22T08:42:02;12.40;;;10.82;;
9675;SDS011;4876;42.656;23.292;2023-06-22T08:44:29;15.43;;;11.40;;
9675;SDS011;4876;42.656;23.292;2023-06-22T08:46:56;12.88;;;11.30;;
9675;SDS011;4876;42.656;23.292;2023-06-22T08:49:23;13.25;;;11.55;;
9675;SDS011;4876;42.656;23.292;2023-06-22T08:51:49;14.57;;;11.70;;
9675;SDS011;4876;42.656;23.292;2023-06-22T08:54:19;17.50;;;11.88;;
9675;SDS011;4876;42.656;23.292;2023-06-22T08:56:46;19.73;;;10.95;;
9675;SDS011;4876;42.656;23.292;2023-06-22T08:59:13;12.80;;;9.95;;
9675;SDS011;4876;42.656;23.292;2023-06-22T09:01:40;11.23;;;10.13;;
9675;SDS011;4876;42.656;23.292;2023-06-22T09:04:10;14.65;;;10.88;;
9675;SDS011;4876;42.656;23.292;2023-06-22T09:06:37;9.88;;;8.85;;
9675;SDS011;4876;42.656;23.292;2023-06-22T09:09:09;14.93;;;10.27;;
9675;SDS011;4876;42.656;23.292;2023-06-22T09:11:37;11.20;;;10.10;;
9675;SDS011;4876;42.656;23.292;2023-06-22T09:14:04;10.75;;;9.60;;
9675;SDS011;4876;42.656;23.292;2023-06-22T09:16:31;10.63;;;9.57;;
9675;SDS011;4876;42.656;23.292;2023-06-22T09:18:58;10.50;;;9.50;;
9675;SDS011;4876;42.656;23.292;2023-06-22T09:21:25;11.00;;;9.90;;
9675;SDS011;4876;42.656;23.292;2023-06-22T09:23:52;10.73;;;8.73;;
9675;SDS011;4876;42.656;23.292;2023-06-22T09:26:19;9.68;;;8.88;;
9675;SDS011;4876;42.656;23.292;2023-06-22T09:28:49;10.43;;;9.38;;
9675;SDS011;4876;42.656;23.292;2023-06-22T09:31:16;13.45;;;8.90;;
9675;SDS011;4876;42.656;23.292;2023-06-22T09:33:46;10.35;;;9.35;;
9675;SDS011;4876;42.656;23.292;2023-06-22T09:36:12;10.57;;;9.48;;
9675;SDS011;4876;42.656;23.292;2023-06-22T09:38:39;11.98;;;9.50;;
9675;SDS011;4876;42.656;23.292;2023-06-22T09:41:06;9.93;;;8.93;;
9675;SDS011;4876;42.656;23.292;2023-06-22T09:43:33;9.60;;;8.70;;
9675;SDS011;4876;42.656;23.292;2023-06-22T09:46:02;13.93;;;10.10;;
9675;SDS011;4876;42.656;23.292;2023-06-22T09:48:29;10.05;;;9.02;;
9675;SDS011;4876;42.656;23.292;2023-06-22T09:50:55;10.07;;;8.80;;
9675;SDS011;4876;42.656;23.292;2023-06-22T09:53:22;10.73;;;9.05;;
9675;SDS011;4876;42.656;23.292;2023-06-22T09:55:49;12.30;;;8.52;;
9675;SDS011;4876;42.656;23.292;2023-06-22T09:58:16;12.35;;;9.00;;
9675;SDS011;4876;42.656;23.292;2023-06-22T10:00:43;10.20;;;9.00;;
9675;SDS011;4876;42.656;23.292;2023-06-22T10:03:11;11.63;;;9.05;;
9675;SDS011;4876;42.656;23.292;2023-06-22T10:05:38;11.23;;;9.00;;
9675;SDS011;4876;42.656;23.292;2023-06-22T10:08:04;11.10;;;9.35;;
9675;SDS011;4876;42.656;23.292;2023-06-22T10:10:32;13.63;;;8.98;;
9675;SDS011;4876;42.656;23.292;2023-06-22T10:13:02;11.40;;;8.00;;
9675;SDS011;4876;42.656;23.292;2023-06-22T10:15:35;10.20;;;7.55;;
9675;SDS011;4876;42.656;23.292;2023-06-22T10:18:02;10.38;;;9.30;;
9675;SDS011;4876;42.656;23.292;2023-06-22T10:20:31;14.73;;;9.15;;
9675;SDS011;4876;42.656;23.292;2023-06-22T10:22:57;9.48;;;8.63;;
9675;SDS011;4876;42.656;23.292;2023-06-22T10:25:24;9.77;;;8.77;;
9675;SDS011;4876;42.656;23.292;2023-06-22T10:27:51;10.43;;;9.40;;
9675;SDS011;4876;42.656;23.292;2023-06-22T10:30:18;11.02;;;9.55;;
9675;SDS011;4876;42.656;23.292;2023-06-22T10:32:45;15.75;;;10.45;;
9675;SDS011;4876;42.656;23.292;2023-06-22T10:35:11;11.00;;;9.85;;
9675;SDS011;4876;42.656;23.292;2023-06-22T10:37:42;10.43;;;9.48;;
9675;SDS011;4876;42.656;23.292;2023-06-22T10:40:10;13.68;;;9.90;;
9675;SDS011;4876;42.656;23.292;2023-06-22T10:42:38;12.52;;;9.85;;
9675;SDS011;4876;42.656;23.292;2023-06-22T10:45:05;10.70;;;9.68;;
9675;SDS011;4876;42.656;23.292;2023-06-22T10:47:33;11.38;;;9.23;;
9675;SDS011;4876;42.656;23.292;2023-06-22T10:50:01;10.43;;;9.45;;
9675;SDS011;4876;42.656;23.292;2023-06-22T10:52:28;12.88;;;9.82;;
9675;SDS011;4876;42.656;23.292;2023-06-22T10:54:56;12.73;;;9.88;;
9675;SDS011;4876;42.656;23.292;2023-06-22T10:57:23;14.88;;;9.52;;
9675;SDS011;4876;42.656;23.292;2023-06-22T10:59:50;13.27;;;9.93;;
9675;SDS011;4876;42.656;23.292;2023-06-22T11:02:17;11.82;;;10.73;;
9675;SDS011;4876;42.656;23.292;2023-06-22T11:04:43;10.60;;;9.50;;
9675;SDS011;4876;42.656;23.292;2023-06-22T11:07:11;13.48;;;9.57;;
9675;SDS011;4876;42.656;23.292;2023-06-22T11:09:38;12.07;;;9.43;;
9675;SDS011;4876;42.656;23.292;2023-06-22T11:12:06;11.13;;;10.00;;
9675;SDS011;4876;42.656;23.292;2023-06-22T11:14:33;11.10;;;9.88;;
9675;SDS011;4876;42.656;23.292;2023-06-22T11:17:00;11.55;;;10.35;;
9675;SDS011;4876;42.656;23.292;2023-06-22T11:19:27;10.93;;;9.70;;
9675;SDS011;4876;42.656;23.292;2023-06-22T11:21:53;12.75;;;11.52;;
9675;SDS011;4876;42.656;23.292;2023-06-22T11:24:20;11.82;;;10.27;;
9675;SDS011;4876;42.656;23.292;2023-06-22T11:26:47;11.55;;;10.35;;
9675;SDS011;4876;42.656;23.292;2023-06-22T11:29:15;14.27;;;9.30;;
9675;SDS011;4876;42.656;23.292;2023-06-22T11:31:42;11.35;;;10.20;;
9675;SDS011;4876;42.656;23.292;2023-06-22T11:34:09;10.98;;;9.88;;
9675;SDS011;4876;42.656;23.292;2023-06-22T11:36:36;15.50;;;10.45;;
9675;SDS011;4876;42.656;23.292;2023-06-22T11:39:03;13.27;;;10.13;;
9675;SDS011;4876;42.656;23.292;2023-06-22T11:41:30;12.18;;;9.45;;
9675;SDS011;4876;42.656;23.292;2023-06-22T11:43:56;12.00;;;10.40;;
9675;SDS011;4876;42.656;23.292;2023-06-22T11:46:25;10.52;;;9.43;;
9675;SDS011;4876;42.656;23.292;2023-06-22T11:48:51;13.40;;;10.68;;
9675;SDS011;4876;42.656;23.292;2023-06-22T11:51:18;11.73;;;9.27;;
9675;SDS011;4876;42.656;23.292;2023-06-22T11:53:45;15.05;;;10.30;;
9675;SDS011;4876;42.656;23.292;2023-06-22T11:56:12;12.70;;;10.15;;
9675;SDS011;4876;42.656;23.292;2023-06-22T11:58:38;17.35;;;10.43;;
9675;SDS011;4876;42.656;23.292;2023-06-22T12:01:05;14.45;;;10.85;;
9675;SDS011;4876;42.656;23.292;2023-06-22T12:03:33;15.52;;;10.07;;
9675;SDS011;4876;42.656;23.292;2023-06-22T12:06:00;13.18;;;10.85;;
9675;SDS011;4876;42.656;23.292;2023-06-22T12:08:27;20.48;;;11.30;;
9675;SDS011;4876;42.656;23.292;2023-06-22T12:10:54;28.83;;;10.73;;
9675;SDS011;4876;42.656;23.292;2023-06-22T12:13:21;37.30;;;12.32;;
9675;SDS011;4876;42.656;23.292;2023-06-22T12:15:47;19.85;;;11.45;;
9675;SDS011;4876;42.656;23.292;2023-06-22T12:18:14;16.33;;;10.98;;
9675;SDS011;4876;42.656;23.292;2023-06-22T12:20:42;16.80;;;10.88;;
9675;SDS011;4876;42.656;23.292;2023-06-22T12:23:10;12.85;;;10.68;;
9675;SDS011;4876;42.656;23.292;2023-06-22T12:25:36;22.85;;;11.77;;
9675;SDS011;4876;42.656;23.292;2023-06-22T12:28:03;14.95;;;10.90;;
9675;SDS011;4876;42.656;23.292;2023-06-22T12:30:32;16.60;;;11.45;;
9675;SDS011;4876;42.656;23.292;2023-06-22T12:32:59;12.00;;;10.60;;
9675;SDS011;4876;42.656;23.292;2023-06-22T12:35:26;16.40;;;10.30;;
9675;SDS011;4876;42.656;23.292;2023-06-22T12:37:54;15.20;;;10.35;;
9675;SDS011;4876;42.656;23.292;2023-06-22T12:40:21;12.63;;;10.25;;
9675;SDS011;4876;42.656;23.292;2023-06-22T12:42:48;12.82;;;10.50;;
9675;SDS011;4876;42.656;23.292;2023-06-22T12:45:15;16.63;;;10.55;;
9675;SDS011;4876;42.656;23.292;2023-06-22T12:47:41;18.85;;;10.73;;
9675;SDS011;4876;42.656;23.292;2023-06-22T12:50:08;14.82;;;11.70;;
9675;SDS011;4876;42.656;23.292;2023-06-22T12:52:36;16.50;;;11.45;;
9675;SDS011;4876;42.656;23.292;2023-06-22T12:55:06;12.77;;;9.85;;
9675;SDS011;4876;42.656;23.292;2023-06-22T12:57:33;11.10;;;9.27;;
9675;SDS011;4876;42.656;23.292;2023-06-22T13:00:00;13.90;;;9.63;;
9675;SDS011;4876;42.656;23.292;2023-06-22T13:02:27;11.30;;;8.35;;
9675;SDS011;4876;42.656;23.292;2023-06-22T13:04:54;9.35;;;8.10;;
9675;SDS011;4876;42.656;23.292;2023-06-22T13:07:20;15.23;;;9.05;;
9675;SDS011;4876;42.656;23.292;2023-06-22T13:09:47;20.40;;;9.57;;
9675;SDS011;4876;42.656;23.292;2023-06-22T13:12:17;15.88;;;9.98;;
9675;SDS011;4876;42.656;23.292;2023-06-22T13:14:45;17.05;;;10.75;;
9675;SDS011;4876;42.656;23.292;2023-06-22T13:17:12;15.75;;;10.10;;
9675;SDS011;4876;42.656;23.292;2023-06-22T13:19:39;17.58;;;10.65;;
9675;SDS011;4876;42.656;23.292;2023-06-22T13:22:09;15.68;;;9.60;;
9675;SDS011;4876;42.656;23.292;2023-06-22T13:24:52;17.40;;;10.50;;
9675;SDS011;4876;42.656;23.292;2023-06-22T13:27:20;17.30;;;10.50;;
9675;SDS011;4876;42.656;23.292;2023-06-22T13:29:47;14.38;;;9.98;;
9675;SDS011;4876;42.656;23.292;2023-06-22T13:32:14;12.32;;;10.00;;
9675;SDS011;4876;42.656;23.292;2023-06-22T13:34:41;14.98;;;10.65;;
9675;SDS011;4876;42.656;23.292;2023-06-22T13:37:08;13.65;;;10.50;;
9675;SDS011;4876;42.656;23.292;2023-06-22T13:39:35;11.57;;;9.68;;
9675;SDS011;4876;42.656;23.292;2023-06-22T13:42:02;10.43;;;9.33;;
9675;SDS011;4876;42.656;23.292;2023-06-22T13:44:30;22.00;;;11.30;;
9675;SDS011;4876;42.656;23.292;2023-06-22T13:46:57;17.35;;;11.52;;
9675;SDS011;4876;42.656;23.292;2023-06-22T13:49:24;12.82;;;9.93;;
9675;SDS011;4876;42.656;23.292;2023-06-22T13:51:51;22.67;;;10.55;;
9675;SDS011;4876;42.656;23.292;2023-06-22T13:54:18;25.30;;;11.65;;
9675;SDS011;4876;42.656;23.292;2023-06-22T13:56:44;27.27;;;10.52;;
9675;SDS011;4876;42.656;23.292;2023-06-22T13:59:11;20.92;;;9.00;;
9675;SDS011;4876;42.656;23.292;2023-06-22T14:01:39;18.00;;;9.18;;
9675;SDS011;4876;42.656;23.292;2023-06-22T14:04:06;12.25;;;8.82;;
9675;SDS011;4876;42.656;23.292;2023-06-22T14:06:33;16.63;;;9.43;;
9675;SDS011;4876;42.656;23.292;2023-06-22T14:09:00;23.08;;;9.70;;
9675;SDS011;4876;42.656;23.292;2023-06-22T14:11:27;16.90;;;8.68;;
9675;SDS011;4876;42.656;23.292;2023-06-22T14:13:54;16.65;;;8.70;;
9675;SDS011;4876;42.656;23.292;2023-06-22T14:16:21;14.38;;;9.18;;
9675;SDS011;4876;42.656;23.292;2023-06-22T14:18:49;12.57;;;8.80;;
9675;SDS011;4876;42.656;23.292;2023-06-22T14:21:16;12.13;;;8.93;;
9675;SDS011;4876;42.656;23.292;2023-06-22T14:23:44;13.90;;;8.90;;
9675;SDS011;4876;42.656;23.292;2023-06-22T14:26:14;11.93;;;8.43;;
9675;SDS011;4876;42.656;23.292;2023-06-22T14:28:42;10.53;;;8.07;;
9675;SDS011;4876;42.656;23.292;2023-06-22T14:31:12;14.07;;;9.30;;
9675;SDS011;4876;42.656;23.292;2023-06-22T14:33:40;19.90;;;10.27;;
9675;SDS011;4876;42.656;23.292;2023-06-22T14:36:08;17.23;;;9.43;;
9675;SDS011;4876;42.656;23.292;2023-06-22T14:38:35;12.20;;;8.83;;
9675;SDS011;4876;42.656;23.292;2023-06-22T14:41:01;14.13;;;8.97;;
9675;SDS011;4876;42.656;23.292;2023-06-22T14:43:28;19.60;;;9.30;;
9675;SDS011;4876;42.656;23.292;2023-06-22T14:45:55;14.73;;;9.10;;